sensor_id;sensor_type;location;lat;lon;timestamp;P1;durP1;ratioP1;P2;durP2;ratioP2
11612;SDS011;5862;48.718;9.108;2022-07-29T00:01:21;4.10;;;3.80;;
11612;SDS011;5862;48.718;9.108;2022-07-29T00:03:47;4.88;;;3.88;;
11612;SDS011;5862;48.718;9.108;2022-07-29T00:06:16;4.00;;;3.70;;
11612;SDS011;5862;48.718;9.108;2022-07-29T00:08:46;4.13;;;3.83;;
11612;SDS011;5862;48.718;9.108;2022-07-29T00:11:13;4.53;;;3.90;;
11612;SDS011;5862;48.718;9.108;2022-07-29T00:13:42;4.30;;;4.00;;
11612;SDS011;5862;48.718;9.108;2022-07-29T00:16:15;3.95;;;3.65;;
11612;SDS011;5862;48.718;9.108;2022-07-29T00:18:44;4.18;;;3.78;;
11612;SDS011;5862;48.718;9.108;2022-07-29T00:21:13;3.50;;;3.22;;
11612;SDS011;5862;48.718;9.108;2022-07-29T00:23:45;3.95;;;3.65;;
11612;SDS011;5862;48.718;9.108;2022-07-29T00:26:14;3.38;;;3.08;;
11612;SDS011;5862;48.718;9.108;2022-07-29T00:28:40;4.45;;;4.05;;
11612;SDS011;5862;48.718;9.108;2022-07-29T00:31:07;4.15;;;3.70;;
11612;SDS011;5862;48.718;9.108;2022-07-29T00:33:34;4.60;;;3.85;;
11612;SDS011;5862;48.718;9.108;2022-07-29T00:36:03;3.45;;;3.10;;
11612;SDS011;5862;48.718;9.108;2022-07-29T00:38:29;4.13;;;3.75;;
11612;SDS011;5862;48.718;9.108;2022-07-29T00:40:58;4.45;;;3.85;;
11612;SDS011;5862;48.718;9.108;2022-07-29T00:43:25;3.83;;;3.50;;
11612;SDS011;5862;48.718;9.108;2022-07-29T00:45:51;3.78;;;3.47;;
11612;SDS011;5862;48.718;9.108;2022-07-29T00:48:20;3.35;;;3.05;;
11612;SDS011;5862;48.718;9.108;2022-07-29T00:50:49;3.67;;;3.38;;
11612;SDS011;5862;48.718;9.108;2022-07-29T00:53:17;3.55;;;3.25;;
11612;SDS011;5862;48.718;9.108;2022-07-29T00:55:46;3.63;;;3.33;;
11612;SDS011;5862;48.718;9.108;2022-07-29T00:58:15;4.20;;;3.80;;
11612;SDS011;5862;48.718;9.108;2022-07-29T01:00:42;3.70;;;3.40;;
11612;SDS011;5862;48.718;9.108;2022-07-29T01:03:11;3.88;;;3.58;;
11612;SDS011;5862;48.718;9.108;2022-07-29T01:05:38;3.28;;;2.97;;
11612;SDS011;5862;48.718;9.108;2022-07-29T01:08:17;4.05;;;3.63;;
11612;SDS011;5862;48.718;9.108;2022-07-29T01:10:46;4.97;;;3.80;;
11612;SDS011;5862;48.718;9.108;2022-07-29T01:13:15;3.22;;;3.00;;
11612;SDS011;5862;48.718;9.108;2022-07-29T01:16:21;3.00;;;2.80;;
11612;SDS011;5862;48.718;9.108;2022-07-29T01:19:06;3.15;;;2.95;;
11612;SDS011;5862;48.718;9.108;2022-07-29T01:21:51;3.40;;;3.20;;
11612;SDS011;5862;48.718;9.108;2022-07-29T01:27:51;3.15;;;2.92;;
11612;SDS011;5862;48.718;9.108;2022-07-29T01:30:07;3.70;;;2.95;;
11612;SDS011;5862;48.718;9.108;2022-07-29T01:32:35;3.38;;;3.08;;
11612;SDS011;5862;48.718;9.108;2022-07-29T01:40:40;4.05;;;2.85;;
11612;SDS011;5862;48.718;9.108;2022-07-29T01:43:14;3.33;;;3.03;;
11612;SDS011;5862;48.718;9.108;2022-07-29T01:48:44;3.40;;;2.97;;
11612;SDS011;5862;48.718;9.108;2022-07-29T01:51:21;2.45;;;2.25;;
11612;SDS011;5862;48.718;9.108;2022-07-29T01:56:34;2.70;;;2.50;;
11612;SDS011;5862;48.718;9.108;2022-07-29T01:59:03;3.00;;;2.50;;
11612;SDS011;5862;48.718;9.108;2022-07-29T02:01:36;2.83;;;2.35;;
11612;SDS011;5862;48.718;9.108;2022-07-29T02:04:04;3.10;;;2.53;;
11612;SDS011;5862;48.718;9.108;2022-07-29T02:06:33;2.50;;;2.17;;
11612;SDS011;5862;48.718;9.108;2022-07-29T02:09:01;2.70;;;2.50;;
11612;SDS011;5862;48.718;9.108;2022-07-29T02:11:36;2.45;;;2.22;;
11612;SDS011;5862;48.718;9.108;2022-07-29T02:14:04;2.42;;;2.22;;
11612;SDS011;5862;48.718;9.108;2022-07-29T02:16:31;2.60;;;2.40;;
11612;SDS011;5862;48.718;9.108;2022-07-29T02:19:02;2.50;;;2.30;;
11612;SDS011;5862;48.718;9.108;2022-07-29T02:21:31;2.03;;;1.92;;
11612;SDS011;5862;48.718;9.108;2022-07-29T02:23:59;2.60;;;2.38;;
11612;SDS011;5862;48.718;9.108;2022-07-29T02:26:27;2.35;;;2.17;;
11612;SDS011;5862;48.718;9.108;2022-07-29T02:28:56;2.88;;;2.67;;
11612;SDS011;5862;48.718;9.108;2022-07-29T02:31:24;2.83;;;2.63;;
11612;SDS011;5862;48.718;9.108;2022-07-29T02:33:52;2.40;;;2.20;;
11612;SDS011;5862;48.718;9.108;2022-07-29T02:36:21;2.60;;;2.40;;
11612;SDS011;5862;48.718;9.108;2022-07-29T02:38:49;3.15;;;2.85;;
11612;SDS011;5862;48.718;9.108;2022-07-29T02:41:17;2.90;;;2.60;;
11612;SDS011;5862;48.718;9.108;2022-07-29T02:43:54;2.97;;;2.58;;
11612;SDS011;5862;48.718;9.108;2022-07-29T02:46:29;2.90;;;2.70;;
11612;SDS011;5862;48.718;9.108;2022-07-29T02:49:14;2.53;;;2.33;;
11612;SDS011;5862;48.718;9.108;2022-07-29T02:51:46;2.90;;;2.70;;
11612;SDS011;5862;48.718;9.108;2022-07-29T02:54:23;2.80;;;2.60;;
11612;SDS011;5862;48.718;9.108;2022-07-29T02:57:12;2.88;;;2.67;;
11612;SDS011;5862;48.718;9.108;2022-07-29T02:59:45;3.35;;;2.47;;
11612;SDS011;5862;48.718;9.108;2022-07-29T03:02:14;2.92;;;2.70;;
11612;SDS011;5862;48.718;9.108;2022-07-29T03:04:44;2.70;;;2.50;;
11612;SDS011;5862;48.718;9.108;2022-07-29T03:07:10;2.53;;;2.33;;
11612;SDS011;5862;48.718;9.108;2022-07-29T03:09:40;2.40;;;2.20;;
11612;SDS011;5862;48.718;9.108;2022-07-29T03:12:10;2.88;;;2.60;;
11612;SDS011;5862;48.718;9.108;2022-07-29T03:14:38;2.33;;;2.15;;
11612;SDS011;5862;48.718;9.108;2022-07-29T03:17:04;2.67;;;2.47;;
11612;SDS011;5862;48.718;9.108;2022-07-29T03:19:37;2.40;;;2.20;;
11612;SDS011;5862;48.718;9.108;2022-07-29T03:22:05;2.20;;;2.00;;
11612;SDS011;5862;48.718;9.108;2022-07-29T03:24:32;2.63;;;2.38;;
11612;SDS011;5862;48.718;9.108;2022-07-29T03:27:01;3.00;;;2.80;;
11612;SDS011;5862;48.718;9.108;2022-07-29T03:29:30;2.83;;;2.63;;
11612;SDS011;5862;48.718;9.108;2022-07-29T03:32:03;2.20;;;2.00;;
11612;SDS011;5862;48.718;9.108;2022-07-29T03:34:34;2.40;;;2.20;;
11612;SDS011;5862;48.718;9.108;2022-07-29T03:37:02;2.15;;;1.95;;
11612;SDS011;5862;48.718;9.108;2022-07-29T03:39:35;2.15;;;2.00;;
11612;SDS011;5862;48.718;9.108;2022-07-29T03:42:07;2.08;;;1.98;;
11612;SDS011;5862;48.718;9.108;2022-07-29T03:44:34;2.30;;;2.10;;
11612;SDS011;5862;48.718;9.108;2022-07-29T03:47:05;3.28;;;2.80;;
11612;SDS011;5862;48.718;9.108;2022-07-29T03:49:32;2.70;;;2.50;;
11612;SDS011;5862;48.718;9.108;2022-07-29T03:52:05;2.90;;;2.70;;
11612;SDS011;5862;48.718;9.108;2022-07-29T03:54:32;2.47;;;2.30;;
11612;SDS011;5862;48.718;9.108;2022-07-29T03:56:59;2.50;;;2.10;;
11612;SDS011;5862;48.718;9.108;2022-07-29T03:59:27;3.05;;;2.85;;
11612;SDS011;5862;48.718;9.108;2022-07-29T04:01:56;2.50;;;2.30;;
11612;SDS011;5862;48.718;9.108;2022-07-29T04:04:24;3.00;;;2.80;;
11612;SDS011;5862;48.718;9.108;2022-07-29T04:06:52;3.00;;;2.70;;
11612;SDS011;5862;48.718;9.108;2022-07-29T04:09:21;2.15;;;2.05;;
11612;SDS011;5862;48.718;9.108;2022-07-29T04:11:50;2.53;;;2.20;;
11612;SDS011;5862;48.718;9.108;2022-07-29T04:14:29;1.98;;;1.88;;
11612;SDS011;5862;48.718;9.108;2022-07-29T04:17:03;2.17;;;2.08;;
11612;SDS011;5862;48.718;9.108;2022-07-29T04:19:30;2.10;;;1.90;;
11612;SDS011;5862;48.718;9.108;2022-07-29T04:22:01;2.35;;;2.20;;
11612;SDS011;5862;48.718;9.108;2022-07-29T04:24:32;2.17;;;1.98;;
11612;SDS011;5862;48.718;9.108;2022-07-29T04:26:59;2.00;;;1.90;;
11612;SDS011;5862;48.718;9.108;2022-07-29T04:29:25;1.80;;;1.70;;
11612;SDS011;5862;48.718;9.108;2022-07-29T04:31:52;1.63;;;1.52;;
11612;SDS011;5862;48.718;9.108;2022-07-29T04:34:18;1.73;;;1.63;;
11612;SDS011;5862;48.718;9.108;2022-07-29T04:36:46;2.20;;;2.00;;
11612;SDS011;5862;48.718;9.108;2022-07-29T04:39:12;1.90;;;1.80;;
11612;SDS011;5862;48.718;9.108;2022-07-29T04:41:44;1.65;;;1.55;;
11612;SDS011;5862;48.718;9.108;2022-07-29T04:44:11;2.15;;;1.85;;
11612;SDS011;5862;48.718;9.108;2022-07-29T04:46:41;1.50;;;1.40;;
11612;SDS011;5862;48.718;9.108;2022-07-29T04:49:08;1.70;;;1.60;;
11612;SDS011;5862;48.718;9.108;2022-07-29T04:51:37;1.30;;;1.20;;
11612;SDS011;5862;48.718;9.108;2022-07-29T04:54:03;1.10;;;1.05;;
11612;SDS011;5862;48.718;9.108;2022-07-29T04:56:30;1.50;;;1.40;;
11612;SDS011;5862;48.718;9.108;2022-07-29T04:58:56;1.60;;;1.50;;
11612;SDS011;5862;48.718;9.108;2022-07-29T05:01:25;1.58;;;1.33;;
11612;SDS011;5862;48.718;9.108;2022-07-29T05:03:52;1.58;;;1.48;;
11612;SDS011;5862;48.718;9.108;2022-07-29T05:06:25;2.92;;;1.60;;
11612;SDS011;5862;48.718;9.108;2022-07-29T05:08:51;1.60;;;1.50;;
11612;SDS011;5862;48.718;9.108;2022-07-29T05:11:18;3.20;;;1.67;;
11612;SDS011;5862;48.718;9.108;2022-07-29T05:13:54;1.33;;;1.23;;
11612;SDS011;5862;48.718;9.108;2022-07-29T05:16:21;3.30;;;1.65;;
11612;SDS011;5862;48.718;9.108;2022-07-29T05:18:47;1.90;;;1.60;;
11612;SDS011;5862;48.718;9.108;2022-07-29T05:21:16;1.63;;;1.52;;
11612;SDS011;5862;48.718;9.108;2022-07-29T05:23:43;1.75;;;1.65;;
11612;SDS011;5862;48.718;9.108;2022-07-29T05:26:09;1.60;;;1.50;;
11612;SDS011;5862;48.718;9.108;2022-07-29T05:28:36;1.95;;;1.85;;
11612;SDS011;5862;48.718;9.108;2022-07-29T05:31:02;1.95;;;1.80;;
11612;SDS011;5862;48.718;9.108;2022-07-29T05:33:29;1.90;;;1.80;;
11612;SDS011;5862;48.718;9.108;2022-07-29T05:36:04;2.40;;;1.60;;
11612;SDS011;5862;48.718;9.108;2022-07-29T05:38:36;1.60;;;1.50;;
11612;SDS011;5862;48.718;9.108;2022-07-29T05:41:03;1.67;;;1.58;;
11612;SDS011;5862;48.718;9.108;2022-07-29T05:43:31;1.70;;;1.60;;
11612;SDS011;5862;48.718;9.108;2022-07-29T05:45:57;2.38;;;1.88;;
11612;SDS011;5862;48.718;9.108;2022-07-29T05:48:24;1.73;;;1.63;;
11612;SDS011;5862;48.718;9.108;2022-07-29T05:50:53;2.00;;;1.77;;
11612;SDS011;5862;48.718;9.108;2022-07-29T05:53:22;3.03;;;1.67;;
11612;SDS011;5862;48.718;9.108;2022-07-29T05:55:56;2.10;;;1.92;;
11612;SDS011;5862;48.718;9.108;2022-07-29T05:58:27;1.75;;;1.60;;
11612;SDS011;5862;48.718;9.108;2022-07-29T06:00:54;3.35;;;2.10;;
11612;SDS011;5862;48.718;9.108;2022-07-29T06:03:25;3.35;;;2.00;;
11612;SDS011;5862;48.718;9.108;2022-07-29T06:05:52;2.40;;;1.63;;
11612;SDS011;5862;48.718;9.108;2022-07-29T06:08:18;2.10;;;2.00;;
11612;SDS011;5862;48.718;9.108;2022-07-29T06:10:47;2.08;;;1.88;;
11612;SDS011;5862;48.718;9.108;2022-07-29T06:13:14;2.20;;;2.00;;
11612;SDS011;5862;48.718;9.108;2022-07-29T06:15:43;2.20;;;2.00;;
11612;SDS011;5862;48.718;9.108;2022-07-29T06:18:12;1.90;;;1.80;;
11612;SDS011;5862;48.718;9.108;2022-07-29T06:20:39;1.90;;;1.80;;
11612;SDS011;5862;48.718;9.108;2022-07-29T06:23:05;1.77;;;1.67;;
11612;SDS011;5862;48.718;9.108;2022-07-29T06:25:39;2.10;;;2.00;;
11612;SDS011;5862;48.718;9.108;2022-07-29T06:28:08;1.80;;;1.70;;
11612;SDS011;5862;48.718;9.108;2022-07-29T06:30:35;2.05;;;1.85;;
11612;SDS011;5862;48.718;9.108;2022-07-29T06:33:03;2.20;;;2.00;;
11612;SDS011;5862;48.718;9.108;2022-07-29T06:35:33;2.22;;;2.13;;
11612;SDS011;5862;48.718;9.108;2022-07-29T06:38:09;2.30;;;2.10;;
11612;SDS011;5862;48.718;9.108;2022-07-29T06:40:57;1.70;;;1.60;;
11612;SDS011;5862;48.718;9.108;2022-07-29T06:43:26;2.17;;;1.98;;
11612;SDS011;5862;48.718;9.108;2022-07-29T06:45:55;2.35;;;2.15;;
11612;SDS011;5862;48.718;9.108;2022-07-29T06:48:22;2.63;;;2.30;;
11612;SDS011;5862;48.718;9.108;2022-07-29T06:50:51;1.85;;;1.70;;
11612;SDS011;5862;48.718;9.108;2022-07-29T06:53:20;2.35;;;2.00;;
11612;SDS011;5862;48.718;9.108;2022-07-29T06:55:47;4.20;;;2.22;;
11612;SDS011;5862;48.718;9.108;2022-07-29T06:58:14;5.05;;;2.40;;
11612;SDS011;5862;48.718;9.108;2022-07-29T07:00:42;2.08;;;1.90;;
11612;SDS011;5862;48.718;9.108;2022-07-29T07:03:11;2.00;;;1.90;;
11612;SDS011;5862;48.718;9.108;2022-07-29T07:05:37;2.08;;;1.98;;
11612;SDS011;5862;48.718;9.108;2022-07-29T07:08:04;2.65;;;1.80;;
11612;SDS011;5862;48.718;9.108;2022-07-29T07:10:31;2.53;;;1.83;;
11612;SDS011;5862;48.718;9.108;2022-07-29T07:12:59;1.77;;;1.67;;
11612;SDS011;5862;48.718;9.108;2022-07-29T07:15:25;1.50;;;1.33;;
11612;SDS011;5862;48.718;9.108;2022-07-29T07:18:05;2.72;;;1.48;;
11612;SDS011;5862;48.718;9.108;2022-07-29T07:20:32;2.35;;;1.65;;
11612;SDS011;5862;48.718;9.108;2022-07-29T07:23:02;1.70;;;1.60;;
11612;SDS011;5862;48.718;9.108;2022-07-29T07:25:29;1.75;;;1.65;;
11612;SDS011;5862;48.718;9.108;2022-07-29T07:27:55;1.85;;;1.60;;
11612;SDS011;5862;48.718;9.108;2022-07-29T07:30:22;1.92;;;1.73;;
11612;SDS011;5862;48.718;9.108;2022-07-29T07:32:53;2.08;;;1.35;;
11612;SDS011;5862;48.718;9.108;2022-07-29T07:35:21;2.15;;;2.03;;
11612;SDS011;5862;48.718;9.108;2022-07-29T07:37:50;2.53;;;2.33;;
11612;SDS011;5862;48.718;9.108;2022-07-29T07:40:19;1.98;;;1.80;;
11612;SDS011;5862;48.718;9.108;2022-07-29T07:42:48;1.63;;;1.50;;
11612;SDS011;5862;48.718;9.108;2022-07-29T07:45:17;1.90;;;1.80;;
11612;SDS011;5862;48.718;9.108;2022-07-29T07:47:46;1.75;;;1.65;;
11612;SDS011;5862;48.718;9.108;2022-07-29T07:50:12;2.33;;;1.42;;
11612;SDS011;5862;48.718;9.108;2022-07-29T07:52:48;2.15;;;1.88;;
11612;SDS011;5862;48.718;9.108;2022-07-29T07:55:15;1.65;;;1.55;;
11612;SDS011;5862;48.718;9.108;2022-07-29T07:57:42;3.40;;;2.20;;
11612;SDS011;5862;48.718;9.108;2022-07-29T08:00:12;2.65;;;1.70;;
11612;SDS011;5862;48.718;9.108;2022-07-29T08:02:40;2.72;;;1.60;;
11612;SDS011;5862;48.718;9.108;2022-07-29T08:05:06;4.82;;;1.95;;
11612;SDS011;5862;48.718;9.108;2022-07-29T08:07:40;2.28;;;2.03;;
11612;SDS011;5862;48.718;9.108;2022-07-29T08:10:06;3.05;;;2.22;;
11612;SDS011;5862;48.718;9.108;2022-07-29T08:12:33;1.67;;;1.58;;
11612;SDS011;5862;48.718;9.108;2022-07-29T08:15:00;1.73;;;1.60;;
11612;SDS011;5862;48.718;9.108;2022-07-29T08:17:26;1.70;;;1.60;;
11612;SDS011;5862;48.718;9.108;2022-07-29T08:19:53;4.43;;;1.83;;
11612;SDS011;5862;48.718;9.108;2022-07-29T08:22:21;2.20;;;2.00;;
11612;SDS011;5862;48.718;9.108;2022-07-29T08:24:48;3.58;;;1.95;;
11612;SDS011;5862;48.718;9.108;2022-07-29T08:27:22;2.50;;;2.30;;
11612;SDS011;5862;48.718;9.108;2022-07-29T08:30:09;2.72;;;2.03;;
11612;SDS011;5862;48.718;9.108;2022-07-29T08:32:37;1.70;;;1.60;;
11612;SDS011;5862;48.718;9.108;2022-07-29T08:35:19;2.97;;;2.10;;
11612;SDS011;5862;48.718;9.108;2022-07-29T08:37:48;2.25;;;2.05;;
11612;SDS011;5862;48.718;9.108;2022-07-29T08:40:20;2.08;;;1.88;;
11612;SDS011;5862;48.718;9.108;2022-07-29T08:42:57;3.20;;;1.92;;
11612;SDS011;5862;48.718;9.108;2022-07-29T08:45:24;3.17;;;2.42;;
11612;SDS011;5862;48.718;9.108;2022-07-29T08:47:51;2.05;;;1.60;;
11612;SDS011;5862;48.718;9.108;2022-07-29T08:50:18;1.67;;;1.58;;
11612;SDS011;5862;48.718;9.108;2022-07-29T08:52:45;2.72;;;2.10;;
11612;SDS011;5862;48.718;9.108;2022-07-29T08:55:11;1.60;;;1.50;;
11612;SDS011;5862;48.718;9.108;2022-07-29T08:57:46;1.90;;;1.80;;
11612;SDS011;5862;48.718;9.108;2022-07-29T09:00:19;2.45;;;1.77;;
11612;SDS011;5862;48.718;9.108;2022-07-29T09:02:51;1.65;;;1.55;;
11612;SDS011;5862;48.718;9.108;2022-07-29T09:05:25;2.88;;;1.85;;
11612;SDS011;5862;48.718;9.108;2022-07-29T09:07:52;2.20;;;2.00;;
11612;SDS011;5862;48.718;9.108;2022-07-29T09:10:21;2.20;;;2.00;;
11612;SDS011;5862;48.718;9.108;2022-07-29T09:12:50;2.50;;;2.20;;
11612;SDS011;5862;48.718;9.108;2022-07-29T09:15:18;4.80;;;2.40;;
11612;SDS011;5862;48.718;9.108;2022-07-29T09:17:47;5.95;;;2.70;;
11612;SDS011;5862;48.718;9.108;2022-07-29T09:20:18;2.08;;;1.90;;
11612;SDS011;5862;48.718;9.108;2022-07-29T09:22:45;2.75;;;2.20;;
11612;SDS011;5862;48.718;9.108;2022-07-29T09:28:17;2.70;;;2.17;;
11612;SDS011;5862;48.718;9.108;2022-07-29T09:30:54;2.15;;;1.95;;
11612;SDS011;5862;48.718;9.108;2022-07-29T09:33:22;3.22;;;2.25;;
11612;SDS011;5862;48.718;9.108;2022-07-29T09:35:59;2.28;;;2.00;;
11612;SDS011;5862;48.718;9.108;2022-07-29T09:38:34;2.85;;;1.80;;
11612;SDS011;5862;48.718;9.108;2022-07-29T09:41:04;1.95;;;1.75;;
11612;SDS011;5862;48.718;9.108;2022-07-29T09:43:34;2.55;;;1.73;;
11612;SDS011;5862;48.718;9.108;2022-07-29T09:46:13;2.75;;;2.22;;
11612;SDS011;5862;48.718;9.108;2022-07-29T09:48:40;3.55;;;2.40;;
11612;SDS011;5862;48.718;9.108;2022-07-29T09:51:17;2.10;;;1.90;;
11612;SDS011;5862;48.718;9.108;2022-07-29T09:53:54;1.83;;;1.73;;
11612;SDS011;5862;48.718;9.108;2022-07-29T09:56:39;3.70;;;2.50;;
11612;SDS011;5862;48.718;9.108;2022-07-29T09:59:09;5.40;;;2.30;;
11612;SDS011;5862;48.718;9.108;2022-07-29T10:01:37;3.30;;;2.47;;
11612;SDS011;5862;48.718;9.108;2022-07-29T10:04:08;2.50;;;2.30;;
11612;SDS011;5862;48.718;9.108;2022-07-29T10:06:35;3.13;;;2.40;;
11612;SDS011;5862;48.718;9.108;2022-07-29T10:09:08;3.42;;;2.38;;
11612;SDS011;5862;48.718;9.108;2022-07-29T10:11:37;2.30;;;2.10;;
11612;SDS011;5862;48.718;9.108;2022-07-29T10:14:21;1.95;;;1.83;;
11612;SDS011;5862;48.718;9.108;2022-07-29T10:16:53;1.80;;;1.70;;
11612;SDS011;5862;48.718;9.108;2022-07-29T10:19:20;4.22;;;2.17;;
11612;SDS011;5862;48.718;9.108;2022-07-29T10:21:48;4.13;;;2.17;;
11612;SDS011;5862;48.718;9.108;2022-07-29T10:24:23;1.98;;;1.70;;
11612;SDS011;5862;48.718;9.108;2022-07-29T10:26:57;3.05;;;1.80;;
11612;SDS011;5862;48.718;9.108;2022-07-29T10:29:25;2.17;;;1.98;;
11612;SDS011;5862;48.718;9.108;2022-07-29T10:32:09;2.00;;;1.90;;
11612;SDS011;5862;48.718;9.108;2022-07-29T10:43:16;3.30;;;2.97;;
11612;SDS011;5862;48.718;9.108;2022-07-29T10:45:57;2.75;;;2.40;;
11612;SDS011;5862;48.718;9.108;2022-07-29T10:48:25;3.10;;;2.47;;
11612;SDS011;5862;48.718;9.108;2022-07-29T10:53:23;2.42;;;2.10;;
11612;SDS011;5862;48.718;9.108;2022-07-29T10:55:54;3.72;;;2.78;;
11612;SDS011;5862;48.718;9.108;2022-07-29T10:58:23;3.88;;;2.80;;
11612;SDS011;5862;48.718;9.108;2022-07-29T11:00:50;4.07;;;3.17;;
11612;SDS011;5862;48.718;9.108;2022-07-29T11:06:18;4.55;;;2.42;;
11612;SDS011;5862;48.718;9.108;2022-07-29T11:12:45;3.25;;;2.75;;
11612;SDS011;5862;48.718;9.108;2022-07-29T11:15:15;4.95;;;4.05;;
11612;SDS011;5862;48.718;9.108;2022-07-29T11:18:12;5.55;;;4.05;;
11612;SDS011;5862;48.718;9.108;2022-07-29T11:20:45;3.83;;;3.47;;
11612;SDS011;5862;48.718;9.108;2022-07-29T11:31:31;6.40;;;4.75;;
11612;SDS011;5862;48.718;9.108;2022-07-29T11:39:39;6.07;;;4.45;;
11612;SDS011;5862;48.718;9.108;2022-07-29T11:50:26;4.30;;;3.72;;
11612;SDS011;5862;48.718;9.108;2022-07-29T11:52:54;6.18;;;4.50;;
11612;SDS011;5862;48.718;9.108;2022-07-29T11:55:23;5.18;;;4.00;;
11612;SDS011;5862;48.718;9.108;2022-07-29T11:58:01;6.00;;;4.28;;
11612;SDS011;5862;48.718;9.108;2022-07-29T12:00:47;4.18;;;3.85;;
11612;SDS011;5862;48.718;9.108;2022-07-29T12:03:27;6.60;;;4.15;;
11612;SDS011;5862;48.718;9.108;2022-07-29T12:06:13;5.10;;;4.43;;
11612;SDS011;5862;48.718;9.108;2022-07-29T12:08:43;4.03;;;3.65;;
11612;SDS011;5862;48.718;9.108;2022-07-29T12:11:16;8.60;;;4.45;;
11612;SDS011;5862;48.718;9.108;2022-07-29T12:13:46;5.78;;;4.68;;
11612;SDS011;5862;48.718;9.108;2022-07-29T12:16:14;4.65;;;4.25;;
11612;SDS011;5862;48.718;9.108;2022-07-29T12:18:55;4.75;;;4.35;;
11612;SDS011;5862;48.718;9.108;2022-07-29T12:21:27;4.15;;;3.58;;
11612;SDS011;5862;48.718;9.108;2022-07-29T12:23:55;5.90;;;4.60;;
11612;SDS011;5862;48.718;9.108;2022-07-29T12:26:31;5.63;;;4.20;;
11612;SDS011;5862;48.718;9.108;2022-07-29T12:29:00;4.55;;;4.13;;
11612;SDS011;5862;48.718;9.108;2022-07-29T12:31:43;5.50;;;5.00;;
11612;SDS011;5862;48.718;9.108;2022-07-29T12:34:11;3.97;;;3.45;;
11612;SDS011;5862;48.718;9.108;2022-07-29T12:36:41;5.15;;;4.18;;
11612;SDS011;5862;48.718;9.108;2022-07-29T12:39:12;5.07;;;3.80;;
11612;SDS011;5862;48.718;9.108;2022-07-29T12:41:39;3.75;;;3.42;;
11612;SDS011;5862;48.718;9.108;2022-07-29T12:44:05;3.80;;;3.50;;
11612;SDS011;5862;48.718;9.108;2022-07-29T12:46:32;3.20;;;3.00;;
11612;SDS011;5862;48.718;9.108;2022-07-29T12:48:58;3.88;;;3.58;;
11612;SDS011;5862;48.718;9.108;2022-07-29T12:51:30;4.15;;;3.80;;
11612;SDS011;5862;48.718;9.108;2022-07-29T12:54:04;4.15;;;3.63;;
11612;SDS011;5862;48.718;9.108;2022-07-29T12:56:40;3.25;;;3.05;;
11612;SDS011;5862;48.718;9.108;2022-07-29T12:59:16;3.80;;;2.95;;
11612;SDS011;5862;48.718;9.108;2022-07-29T13:01:45;3.80;;;3.50;;
11612;SDS011;5862;48.718;9.108;2022-07-29T13:07:24;4.88;;;3.40;;
11612;SDS011;5862;48.718;9.108;2022-07-29T13:10:16;4.18;;;3.67;;
11612;SDS011;5862;48.718;9.108;2022-07-29T13:13:02;3.78;;;3.33;;
11612;SDS011;5862;48.718;9.108;2022-07-29T13:15:29;4.03;;;3.55;;
11612;SDS011;5862;48.718;9.108;2022-07-29T13:18:00;3.55;;;3.25;;
11612;SDS011;5862;48.718;9.108;2022-07-29T13:20:28;3.85;;;3.30;;
11612;SDS011;5862;48.718;9.108;2022-07-29T13:22:59;3.53;;;3.22;;
11612;SDS011;5862;48.718;9.108;2022-07-29T13:27:55;3.50;;;3.20;;
11612;SDS011;5862;48.718;9.108;2022-07-29T13:30:27;3.45;;;3.05;;
11612;SDS011;5862;48.718;9.108;2022-07-29T13:32:56;4.22;;;3.67;;
11612;SDS011;5862;48.718;9.108;2022-07-29T13:35:22;5.78;;;3.78;;
11612;SDS011;5862;48.718;9.108;2022-07-29T13:37:54;4.75;;;3.38;;
11612;SDS011;5862;48.718;9.108;2022-07-29T13:40:23;4.75;;;4.00;;
11612;SDS011;5862;48.718;9.108;2022-07-29T13:42:49;4.65;;;4.25;;
11612;SDS011;5862;48.718;9.108;2022-07-29T13:45:16;4.05;;;3.75;;
11612;SDS011;5862;48.718;9.108;2022-07-29T13:47:45;5.80;;;4.57;;
11612;SDS011;5862;48.718;9.108;2022-07-29T13:50:14;4.97;;;4.05;;
11612;SDS011;5862;48.718;9.108;2022-07-29T13:52:41;4.57;;;4.28;;
11612;SDS011;5862;48.718;9.108;2022-07-29T13:55:09;4.20;;;3.80;;
11612;SDS011;5862;48.718;9.108;2022-07-29T13:57:36;3.60;;;3.30;;
11612;SDS011;5862;48.718;9.108;2022-07-29T14:00:05;4.00;;;3.60;;
11612;SDS011;5862;48.718;9.108;2022-07-29T14:02:32;4.97;;;3.85;;
11612;SDS011;5862;48.718;9.108;2022-07-29T14:05:01;4.00;;;3.70;;
11612;SDS011;5862;48.718;9.108;2022-07-29T14:07:33;3.90;;;3.60;;
11612;SDS011;5862;48.718;9.108;2022-07-29T14:10:00;3.53;;;3.22;;
11612;SDS011;5862;48.718;9.108;2022-07-29T14:12:26;3.65;;;3.35;;
11612;SDS011;5862;48.718;9.108;2022-07-29T14:14:56;3.17;;;2.97;;
11612;SDS011;5862;48.718;9.108;2022-07-29T14:17:25;4.43;;;3.65;;
11612;SDS011;5862;48.718;9.108;2022-07-29T14:19:54;3.35;;;3.03;;
11612;SDS011;5862;48.718;9.108;2022-07-29T14:22:23;3.72;;;3.42;;
11612;SDS011;5862;48.718;9.108;2022-07-29T14:24:52;3.28;;;3.08;;
11612;SDS011;5862;48.718;9.108;2022-07-29T14:27:21;3.92;;;3.25;;
11612;SDS011;5862;48.718;9.108;2022-07-29T14:30:03;4.35;;;3.50;;
11612;SDS011;5862;48.718;9.108;2022-07-29T14:32:33;4.15;;;3.70;;
11612;SDS011;5862;48.718;9.108;2022-07-29T14:34:59;3.65;;;3.22;;
11612;SDS011;5862;48.718;9.108;2022-07-29T14:37:28;3.53;;;3.20;;
11612;SDS011;5862;48.718;9.108;2022-07-29T14:40:06;4.03;;;3.03;;
11612;SDS011;5862;48.718;9.108;2022-07-29T14:42:33;4.18;;;3.70;;
11612;SDS011;5862;48.718;9.108;2022-07-29T14:44:59;3.28;;;2.92;;
11612;SDS011;5862;48.718;9.108;2022-07-29T14:47:26;3.15;;;2.85;;
11612;SDS011;5862;48.718;9.108;2022-07-29T14:49:55;3.28;;;2.97;;
11612;SDS011;5862;48.718;9.108;2022-07-29T14:52:22;2.95;;;2.67;;
11612;SDS011;5862;48.718;9.108;2022-07-29T14:54:53;2.20;;;2.00;;
11612;SDS011;5862;48.718;9.108;2022-07-29T14:57:20;3.05;;;2.85;;
11612;SDS011;5862;48.718;9.108;2022-07-29T14:59:46;2.92;;;2.70;;
11612;SDS011;5862;48.718;9.108;2022-07-29T15:02:13;3.22;;;2.92;;
11612;SDS011;5862;48.718;9.108;2022-07-29T15:04:42;3.50;;;3.20;;
11612;SDS011;5862;48.718;9.108;2022-07-29T15:07:12;4.30;;;2.90;;
11612;SDS011;5862;48.718;9.108;2022-07-29T15:09:41;5.40;;;3.55;;
11612;SDS011;5862;48.718;9.108;2022-07-29T15:12:15;3.80;;;3.50;;
11612;SDS011;5862;48.718;9.108;2022-07-29T15:14:44;3.78;;;3.47;;
11612;SDS011;5862;48.718;9.108;2022-07-29T15:17:16;3.90;;;3.60;;
11612;SDS011;5862;48.718;9.108;2022-07-29T15:19:44;3.50;;;3.20;;
11612;SDS011;5862;48.718;9.108;2022-07-29T15:22:12;3.55;;;3.30;;
11612;SDS011;5862;48.718;9.108;2022-07-29T15:24:38;3.90;;;3.60;;
11612;SDS011;5862;48.718;9.108;2022-07-29T15:27:07;4.43;;;3.53;;
11612;SDS011;5862;48.718;9.108;2022-07-29T15:29:41;5.10;;;4.70;;
11612;SDS011;5862;48.718;9.108;2022-07-29T15:32:12;3.88;;;3.60;;
11612;SDS011;5862;48.718;9.108;2022-07-29T15:34:38;4.72;;;3.85;;
11612;SDS011;5862;48.718;9.108;2022-07-29T15:37:07;4.90;;;4.50;;
11612;SDS011;5862;48.718;9.108;2022-07-29T15:39:36;4.50;;;4.10;;
11612;SDS011;5862;48.718;9.108;2022-07-29T15:42:05;4.43;;;4.10;;
11612;SDS011;5862;48.718;9.108;2022-07-29T15:44:32;4.30;;;3.97;;
11612;SDS011;5862;48.718;9.108;2022-07-29T15:46:59;3.92;;;3.65;;
11612;SDS011;5862;48.718;9.108;2022-07-29T15:49:29;3.65;;;3.40;;
11612;SDS011;5862;48.718;9.108;2022-07-29T15:52:14;3.83;;;3.60;;
11612;SDS011;5862;48.718;9.108;2022-07-29T15:54:43;5.25;;;3.55;;
11612;SDS011;5862;48.718;9.108;2022-07-29T15:57:12;4.10;;;3.70;;
11612;SDS011;5862;48.718;9.108;2022-07-29T15:59:38;3.53;;;3.22;;
11612;SDS011;5862;48.718;9.108;2022-07-29T16:02:05;4.82;;;4.20;;
11612;SDS011;5862;48.718;9.108;2022-07-29T16:04:32;4.35;;;3.95;;
11612;SDS011;5862;48.718;9.108;2022-07-29T16:07:01;3.78;;;3.47;;
11612;SDS011;5862;48.718;9.108;2022-07-29T16:09:28;3.70;;;3.50;;
11612;SDS011;5862;48.718;9.108;2022-07-29T16:11:56;4.25;;;3.95;;
11612;SDS011;5862;48.718;9.108;2022-07-29T16:14:25;4.00;;;3.70;;
11612;SDS011;5862;48.718;9.108;2022-07-29T16:16:53;4.45;;;4.05;;
11612;SDS011;5862;48.718;9.108;2022-07-29T16:19:23;4.40;;;4.00;;
11612;SDS011;5862;48.718;9.108;2022-07-29T16:21:53;4.90;;;4.40;;